Flight Track Log - Related Links

Times and Time Zones

All times are in EDT time to prevent confusion due to time zone crossing. See the EJA831 flight status page for this flight to view local times or setup timezone preferences in your user account.

Time Position Orientation Groundspeed Altitude Reporting Facility
EDT Latitude Longitude Course Direction KTS MPH feet Rate Location/Type
Fri 03:13:19 PM 34.4561 -118.6164 330° Northwest 282 325 10,700  Level Los Center
Fri 03:14:21 PM 34.5211 -118.6628 330° Northwest 271 312 14,600 2,736 Climbing Los Center
Fri 03:15:24 PM 34.5864 -118.7083 330° Northwest 279 321 16,400 1,488 Climbing Los Center
Fri 03:16:26 PM 34.6597 -118.7606 330° Northwest 315 362 17,700 774 Climbing Los Center
Fri 03:17:28 PM 34.7503 -118.8458 322° Northwest 350 403 18,000 145 Climbing Los Center
Fri 03:18:30 PM 34.8153 -118.9356 311° West 356 410 18,000  Level Los Center
Fri 03:19:32 PM 34.8786 -119.0236 311° West 350 403 18,000  Level Los Center
Fri 03:20:34 PM 34.9444 -119.1133 312° West 350 403 18,000  Level Los Center
Fri 03:21:37 PM 35.0072 -119.2042 310° West 351 404 18,000  Level Los Center
Fri 03:22:39 PM 35.0725 -119.2961 311° West 356 410 18,000  Level Los Center
Fri 03:23:41 PM 35.1506 -119.4008 312° West 352 405 18,000  Level Los Center
Fri 03:24:43 PM 35.2136 -119.4892 311° West 347 399 18,000  Level Los Center
Fri 03:25:45 PM 35.2767 -119.5797 310° West 351 404 18,000  Level Los Center
Fri 03:26:47 PM 35.3419 -119.6706 311° West 355 409 18,000  Level Los Center
Fri 03:27:49 PM 35.4072 -119.7619 311° West 359 413 18,000  Level Los Center
Fri 03:28:52 PM 35.4844 -119.8689 312° West 354 407 18,000  Level Los Center
Fri 03:29:54 PM 35.5492 -119.9586 312° West 353 406 18,000  Level Los Center
Fri 03:30:56 PM 35.6136 -120.0461 312° West 351 404 18,000  Level Los Center
Fri 03:31:37 PM 35.6522 -120.0992 312° West 350 403 18,000  Level Oakland Center
Fri 03:32:39 PM 35.7272 -120.2058 311° West 348 400 18,000  Level Oakland Center
Fri 03:33:41 PM 35.7900 -120.2936 311° West 346 398 18,000  Level Oakland Center
Fri 03:34:42 PM 35.8517 -120.3842 310° West 346 398 18,000  Level Oakland Center
Fri 03:35:44 PM 35.9136 -120.4736 311° West 345 397 18,000  Level Oakland Center
Fri 03:36:46 PM 35.9750 -120.5664 309° West 348 400 18,000  Level Oakland Center
Fri 03:37:48 PM 36.0481 -120.6750 310° West 346 398 18,000 -532 Level Oakland Center
Fri 03:38:50 PM 36.1097 -120.7675 310° West 349 402 16,900 -1,366 Descending Oakland Center
Fri 03:39:51 PM 36.1692 -120.8569 309° West 340 391 15,200 -1,659 Descending Oakland Center
Fri 03:40:53 PM 36.2275 -120.9433 310° West 332 382 13,500 -1,645 Descending Oakland Center
Fri 03:41:55 PM 36.2864 -121.0294 310° West 329 379 11,800 -1,645 Descending Oakland Center
Fri 03:42:57 PM 36.3375 -121.1083 309° West 299 344 10,100 -1,645 Descending Oakland Center
Fri 03:43:59 PM 36.3869 -121.1831 309° West 283 326 8,400 -1,805 Descending Oakland Center
Fri 03:45:00 PM 36.4428 -121.2681 309° West 268 308 6,400 -1,220 Descending Oakland Center
Fri 03:46:02 PM 36.4889 -121.3381 309° West 265 305 5,900 -242 Descending Oakland Center
Fri 03:47:04 PM 36.5356 -121.4103 309° West 266 306 5,900  Level Oakland Center
Fri 03:48:06 PM 36.5731 -121.4678 309° West 223 257 5,900  Level Oakland Center
Fri 03:49:07 PM 36.6064 -121.5250 306° West 206 237 5,900  Level Oakland Center
Fri 03:50:09 PM 36.6411 -121.5847 306° West 209 241 5,900  Level Oakland Center
Fri 03:50:57 PM 36.6167 -121.6333 238° Southwest 237 273 5,900  Level Northern TRACON
Fri 03:51:57 PM 36.5833 -121.5667 122° Southeast 216 249 5,900  Level Northern TRACON
Fri 03:52:57 PM 36.5667 -121.5000 107° East 196 226 5,900  Level Northern TRACON
Fri 03:53:58 PM 36.5167 -121.4667 152° Southeast 193 222 5,900  Level Northern TRACON
Fri 03:54:58 PM 36.4833 -121.4167 130° Southeast 194 223 5,900  Level Northern TRACON
Fri 03:55:58 PM 36.4333 -121.3833 152° Southeast 189 217 5,900  Level Northern TRACON
Fri 03:56:58 PM 36.4000 -121.3833 180° South 215 247 5,900  Level Northern TRACON
Fri 03:57:58 PM 36.4333 -121.4333 310° West 177 204 5,900  Level Northern TRACON
Fri 03:58:58 PM 36.4667 -121.4833 310° West 183 211 5,900  Level Northern TRACON
Fri 03:59:58 PM 36.4833 -121.5333 293° West 180 207 5,900 -400 Level Northern TRACON
Fri 04:00:58 PM 36.5000 -121.6000 287° West 183 211 5,100 -733 Descending Northern TRACON
Fri 04:01:28 PM 36.5103 -121.6189 304° West 178 205 4,800 -800 Descending Oakland Center
Fri 04:01:58 PM 36.5167 -121.6500 284° West 175 201 4,300 -1,000 Descending Northern TRACON
Fri 04:02:58 PM 36.5333 -121.7000 293° West 174 200 3,300 -950 Descending Northern TRACON
Fri 04:03:58 PM 36.5500 -121.7500 293° West 159 183 2,400 -1,000 Descending Northern TRACON
Fri 04:04:58 PM 36.5667 -121.8000 293° West 131 151 1,300 -1,100 Descending Northern TRACON

Login

Don't have an account? Register now (free) for customized features, flight alerts, and more!